MET'MAP v2.0
soon released !

Expected late october,
this new version will be
more efficient, smarter,
and hosted on a brand new
server x3 powerfull...
...and still free !


Not compatible ?
Try the mobile version !

LOG IN : | Subscribe | Disclaimer | Who is Orbifly ? |
ICAO code :
Legend : VFR Marginal VFR IFR Intensive IFR Very Intensive IFR
Visi :
Ceiling :
>= 8 km
>= 3000ft
5 to 8 km
1000 to 3000 ft
1500m to 5 km
500 to 1000 ft
800 to 1500m
200 to 500 ft
< 800m
< 200 ft

METAR - GEML Melilla Airport - 30 Oct 2020 01:45 UTC - Data Source NOAA   


- Airport Elevation : 156 ft
- IATA code : MLN
- No reported NOTAMs.


GEML - Melilla Airport

Latest METAR recorded : 2015/08/11 08:00 GEML 110800Z 26004KT 190V300 CAVOK 32/15 Q1014
TAF TAF GEML
Valid from the 29 at 21:00 until the 30 at 21:00 UTC


292030Z 2921/3021 10004KT 9999 SCT015 TX22/3013Z TN15/3001Z
TEMPO 3000/3010 BKN010

Source NOAA


MET'MAP, your aeronautical weather chart ! - Copyright ORBIFLY December 2007

Programming & Development : Alexandra Zaïnal
Co-Developer : Marc-Olivier Méhu
Technical & hardware support : Manuel Goepfert
Concept & Financing : Baudouin d'Aumeries